createdAt,value
2023-05-16T00:01:01.461Z,65.39
2023-05-16T00:03:04.646Z,64.19
2023-05-16T00:05:10.532Z,64.67
2023-05-16T00:07:13.564Z,63.95
2023-05-16T00:09:16.791Z,64.24
2023-05-16T00:11:19.670Z,63.94
2023-05-16T00:13:26.182Z,64.51
2023-05-16T00:15:29.611Z,64.99
2023-05-16T00:17:32.523Z,64.59
2023-05-16T00:19:35.519Z,65.38
2023-05-16T00:21:38.313Z,65.49
2023-05-16T00:23:41.041Z,65.77
2023-05-16T00:25:43.956Z,65.52
2023-05-16T00:27:46.985Z,65.55
2023-05-16T00:29:51.143Z,65.60
2023-05-16T00:31:54.354Z,66.57
2023-05-16T00:33:58.325Z,65.08
2023-05-16T00:36:01.231Z,65.33
2023-05-16T00:38:04.021Z,66.19
2023-05-16T00:40:08.114Z,66.34
2023-05-16T00:42:12.084Z,65.51
2023-05-16T00:44:15.019Z,65.76
2023-05-16T00:46:20.490Z,65.85
2023-05-16T00:48:23.317Z,64.65
2023-05-16T00:50:27.815Z,65.61
2023-05-16T00:52:33.532Z,65.71
2023-05-16T00:54:36.863Z,65.91
2023-05-16T00:56:39.815Z,64.90
2023-05-16T00:58:42.953Z,65.75
2023-05-16T01:00:48.784Z,64.78
2023-05-16T01:02:53.671Z,66.23
2023-05-16T01:04:57.154Z,65.72
2023-05-16T01:06:59.994Z,65.78
2023-05-16T01:09:02.958Z,65.27
2023-05-16T01:11:13.122Z,66.45
2023-05-16T01:13:23.013Z,66.99
2023-05-16T01:15:29.452Z,66.69
2023-05-16T01:17:42.669Z,65.90
2023-05-16T01:20:04.953Z,65.54
2023-05-16T01:22:17.516Z,65.45
2023-05-16T01:24:28.469Z,66.38
2023-05-16T01:26:33.463Z,66.75
2023-05-16T01:28:37.477Z,66.08
2023-05-16T01:30:41.699Z,65.68
2023-05-16T01:32:44.971Z,65.90
2023-05-16T01:34:47.814Z,66.40
2023-05-16T01:36:59.743Z,66.25
2023-05-16T01:39:08.821Z,66.46
2023-05-16T01:41:18.730Z,65.51
2023-05-16T01:43:30.472Z,66.25
2023-05-16T01:45:36.561Z,65.52
2023-05-16T01:47:43.584Z,66.29
2023-05-16T01:49:55.376Z,66.32
2023-05-16T01:52:03.039Z,65.26
2023-05-16T01:54:11.822Z,66.38
2023-05-16T01:56:17.065Z,65.28
2023-05-16T01:58:24.465Z,65.23
2023-05-16T02:00:27.506Z,66.32
2023-05-16T02:02:30.336Z,65.51
2023-05-16T02:04:33.127Z,65.93
2023-05-16T02:06:36.152Z,66.02
2023-05-16T02:08:38.951Z,65.96
2023-05-16T02:10:41.928Z,66.10
2023-05-16T02:12:44.727Z,65.59
2023-05-16T02:14:48.977Z,66.26
2023-05-16T02:16:51.861Z,66.17
2023-05-16T02:18:54.759Z,66.50
2023-05-16T02:20:57.628Z,66.64
2023-05-16T02:23:00.541Z,65.90
2023-05-16T02:25:04.359Z,66.97
2023-05-16T02:27:07.192Z,66.32
2023-05-16T02:29:10.883Z,66.59
2023-05-16T02:31:15.338Z,66.50
2023-05-16T02:33:18.286Z,66.75
2023-05-16T02:35:22.837Z,67.28
2023-05-16T02:37:26.126Z,67.29
2023-05-16T02:39:30.053Z,66.94
2023-05-16T02:41:33.149Z,67.15
2023-05-16T02:43:35.948Z,66.19
2023-05-16T02:45:38.919Z,66.97
2023-05-16T02:47:43.098Z,66.86
2023-05-16T02:49:46.038Z,67.20
2023-05-16T02:51:48.991Z,67.27
2023-05-16T02:53:52.249Z,66.40
2023-05-16T02:55:55.071Z,66.32
2023-05-16T02:57:57.908Z,66.63
2023-05-16T03:00:00.724Z,66.96
2023-05-16T03:02:03.782Z,66.63
2023-05-16T03:04:08.131Z,67.24
2023-05-16T03:06:11.036Z,67.30
2023-05-16T03:08:13.884Z,66.41
2023-05-16T03:10:16.680Z,65.63
2023-05-16T03:12:21.827Z,66.59
2023-05-16T03:14:24.697Z,66.07
2023-05-16T03:16:28.557Z,66.56
2023-05-16T03:18:31.431Z,66.72
2023-05-16T03:20:35.861Z,67.10
2023-05-16T03:22:38.757Z,66.85
2023-05-16T03:24:41.720Z,67.06
2023-05-16T03:26:47.505Z,66.88
2023-05-16T03:28:51.154Z,67.37
2023-05-16T03:30:54.028Z,67.55
2023-05-16T03:32:57.211Z,67.68
2023-05-16T03:35:00.019Z,67.34
2023-05-16T03:37:04.408Z,67.74
2023-05-16T03:39:08.618Z,67.47
2023-05-16T03:41:11.738Z,67.09
2023-05-16T03:43:14.556Z,67.71
2023-05-16T03:45:17.487Z,68.15
2023-05-16T03:47:20.281Z,67.32
2023-05-16T03:49:28.367Z,66.76
2023-05-16T03:51:31.764Z,67.20
2023-05-16T03:53:36.191Z,67.39
2023-05-16T03:55:39.082Z,67.34
2023-05-16T03:57:42.589Z,67.58
2023-05-16T03:59:45.362Z,67.89
2023-05-16T04:01:48.245Z,67.15
2023-05-16T04:03:51.849Z,67.18
2023-05-16T04:05:54.920Z,67.65
2023-05-16T04:07:57.743Z,67.64
2023-05-16T04:10:02.123Z,68.08
2023-05-16T04:12:05.312Z,68.10
2023-05-16T04:14:08.156Z,67.70
2023-05-16T04:16:10.964Z,67.84
2023-05-16T04:18:14.271Z,66.95
2023-05-16T04:20:17.480Z,67.03
2023-05-16T04:22:22.273Z,67.54
2023-05-16T04:24:26.586Z,67.74
2023-05-16T04:26:31.846Z,67.80
2023-05-16T04:28:34.669Z,68.13
2023-05-16T04:30:38.339Z,67.94
2023-05-16T04:32:41.212Z,67.22
2023-05-16T04:34:46.580Z,66.90
2023-05-16T04:36:49.515Z,67.72
2023-05-16T04:38:52.461Z,67.32
2023-05-16T04:40:55.444Z,67.26
2023-05-16T04:42:59.626Z,66.82
2023-05-16T04:45:03.720Z,66.88
2023-05-16T04:47:07.321Z,66.79
2023-05-16T04:49:11.312Z,67.02
2023-05-16T04:51:14.125Z,67.14
2023-05-16T04:53:16.989Z,66.21
2023-05-16T04:55:19.803Z,67.35
2023-05-16T04:57:22.675Z,67.46
2023-05-16T04:59:27.063Z,67.69
2023-05-16T05:01:29.799Z,67.72
2023-05-16T05:03:32.691Z,67.65
2023-05-16T05:05:35.750Z,67.86
2023-05-16T05:07:38.581Z,67.65
2023-05-16T05:09:41.496Z,67.27
2023-05-16T05:11:44.422Z,67.04
2023-05-16T05:13:47.205Z,67.24
2023-05-16T05:15:52.290Z,67.22
2023-05-16T05:17:55.178Z,66.99
2023-05-16T05:19:58.438Z,67.43
2023-05-16T05:22:01.959Z,67.37
2023-05-16T05:24:05.321Z,66.94
2023-05-16T05:26:08.262Z,66.97
2023-05-16T05:28:11.214Z,65.82
2023-05-16T05:30:14.357Z,65.67
2023-05-16T05:32:18.414Z,65.36
2023-05-16T05:34:21.177Z,66.05
2023-05-16T05:36:23.987Z,65.87
2023-05-16T05:38:26.829Z,65.45
2023-05-16T05:40:29.647Z,65.50
2023-05-16T05:42:32.486Z,66.27
2023-05-16T05:44:35.316Z,64.98
2023-05-16T05:46:38.424Z,65.91
2023-05-16T05:48:42.638Z,65.58
2023-05-16T05:50:45.491Z,64.78
2023-05-16T05:52:48.304Z,65.37
2023-05-16T05:54:51.118Z,65.50
2023-05-16T05:56:53.980Z,65.46
2023-05-16T05:58:56.823Z,65.05
2023-05-16T06:00:59.631Z,65.51
2023-05-16T06:03:02.490Z,66.26
2023-05-16T06:05:07.931Z,65.25
2023-05-16T06:07:10.779Z,65.45
2023-05-16T06:09:13.754Z,65.49
2023-05-16T06:11:16.630Z,65.53
2023-05-16T06:13:19.464Z,65.56
2023-05-16T06:15:22.492Z,64.78
2023-05-16T06:17:25.572Z,64.49
2023-05-16T06:19:28.439Z,64.39
2023-05-16T06:21:33.337Z,64.11
2023-05-16T06:23:38.173Z,63.83
2023-05-16T06:25:41.019Z,63.08
2023-05-16T06:27:43.874Z,63.72
2023-05-16T06:29:46.676Z,63.05
2023-05-16T06:31:49.678Z,63.80
2023-05-16T06:33:52.401Z,63.10
2023-05-16T06:35:55.214Z,62.99
2023-05-16T06:37:59.637Z,62.14
2023-05-16T06:40:02.688Z,63.20
2023-05-16T06:42:06.034Z,63.35
2023-05-16T06:44:08.915Z,63.07
2023-05-16T06:46:11.739Z,63.24
2023-05-16T06:48:16.019Z,63.85
2023-05-16T06:50:19.006Z,62.30
2023-05-16T06:52:22.321Z,62.99
2023-05-16T06:54:26.572Z,63.44
2023-05-16T06:56:29.596Z,63.29
2023-05-16T06:58:32.486Z,63.51
2023-05-16T07:00:35.381Z,62.89
2023-05-16T07:02:38.477Z,62.23
2023-05-16T07:04:41.798Z,62.97
2023-05-16T07:06:44.614Z,62.46
2023-05-16T07:08:47.616Z,63.21
2023-05-16T07:10:51.914Z,62.62
2023-05-16T07:12:55.474Z,60.45
2023-05-16T07:14:58.335Z,61.34
2023-05-16T07:17:01.420Z,61.20
2023-05-16T07:19:04.560Z,61.06
2023-05-16T07:21:07.555Z,59.85
2023-05-16T07:23:10.488Z,60.74
2023-05-16T07:25:14.536Z,59.77
2023-05-16T07:27:19.543Z,60.55
2023-05-16T07:29:23.868Z,59.06
2023-05-16T07:31:26.700Z,59.52
2023-05-16T07:33:29.627Z,59.99
2023-05-16T07:35:32.528Z,59.39
2023-05-16T07:37:35.962Z,58.37
2023-05-16T07:39:38.766Z,60.11
2023-05-16T07:41:41.700Z,59.40
2023-05-16T07:43:45.991Z,59.63
2023-05-16T07:45:48.969Z,59.06
2023-05-16T07:47:51.912Z,59.29
2023-05-16T07:49:54.858Z,60.03
2023-05-16T07:51:57.835Z,60.23
2023-05-16T07:54:00.705Z,59.69
2023-05-16T07:56:03.789Z,60.79
2023-05-16T07:58:06.704Z,61.06
2023-05-16T08:00:16.339Z,61.12
2023-05-16T08:02:19.561Z,61.38
2023-05-16T08:04:32.105Z,62.10
2023-05-16T08:06:35.456Z,62.28
2023-05-16T08:08:38.427Z,62.08
2023-05-16T08:10:41.324Z,62.09
2023-05-16T08:12:44.195Z,61.14
2023-05-16T08:14:47.096Z,62.64
2023-05-16T08:16:51.400Z,62.34
2023-05-16T08:18:54.377Z,63.02
2023-05-16T08:20:57.434Z,62.81
2023-05-16T08:23:00.387Z,63.22
2023-05-16T08:25:03.486Z,63.86
2023-05-16T08:27:06.979Z,64.04
2023-05-16T08:29:09.970Z,63.78
2023-05-16T08:31:12.866Z,64.55
2023-05-16T08:33:17.594Z,64.49
2023-05-16T08:35:20.282Z,65.10
2023-05-16T08:37:23.313Z,64.74
2023-05-16T08:39:26.467Z,64.45
2023-05-16T08:41:29.307Z,64.69
2023-05-16T08:43:33.376Z,65.13
2023-05-16T08:45:36.229Z,64.25
2023-05-16T08:47:42.207Z,64.42
2023-05-16T08:49:49.120Z,64.05
2023-05-16T08:51:56.348Z,63.65
2023-05-16T08:54:04.397Z,64.24
2023-05-16T08:56:09.652Z,63.86
2023-05-16T08:58:13.356Z,62.83
2023-05-16T09:00:17.289Z,62.69
2023-05-16T09:02:20.164Z,63.04
2023-05-16T09:04:25.610Z,62.87
2023-05-16T09:06:30.258Z,62.28
2023-05-16T09:08:33.434Z,61.40
2023-05-16T09:10:36.246Z,61.37
2023-05-16T09:12:40.457Z,61.17
2023-05-16T09:14:43.650Z,60.93
2023-05-16T09:16:46.621Z,61.01
2023-05-16T09:18:56.811Z,61.75
2023-05-16T09:21:01.308Z,61.97
2023-05-16T09:23:05.937Z,59.89
2023-05-16T09:25:18.399Z,59.21
2023-05-16T09:27:32.407Z,60.23
2023-05-16T09:29:37.032Z,59.72
2023-05-16T09:31:39.986Z,60.82
2023-05-16T09:33:43.440Z,59.56
2023-05-16T09:35:46.305Z,59.75
2023-05-16T09:37:50.161Z,60.13
2023-05-16T09:39:55.870Z,58.88
2023-05-16T09:42:00.053Z,59.47
2023-05-16T09:44:05.617Z,59.33
2023-05-16T09:46:08.890Z,60.78
2023-05-16T09:48:13.038Z,59.63
2023-05-16T09:50:17.343Z,60.55
2023-05-16T09:52:20.709Z,60.86
2023-05-16T09:54:32.704Z,60.88
2023-05-16T09:56:49.931Z,60.31
2023-05-16T09:58:53.449Z,59.16
2023-05-16T10:00:58.196Z,59.26
2023-05-16T10:03:04.722Z,59.34
2023-05-16T10:05:08.975Z,58.91
2023-05-16T10:07:13.810Z,59.12
2023-05-16T10:09:17.565Z,59.27
2023-05-16T10:11:20.629Z,58.99
2023-05-16T10:13:29.331Z,57.60
2023-05-16T10:15:32.902Z,56.91
2023-05-16T10:17:41.272Z,57.54
2023-05-16T10:19:44.505Z,57.17
2023-05-16T10:21:52.878Z,57.49
2023-05-16T10:23:59.699Z,57.31
2023-05-16T10:26:05.984Z,56.87
2023-05-16T10:28:10.277Z,57.46
2023-05-16T10:30:17.273Z,57.59
2023-05-16T10:32:21.942Z,57.67
2023-05-16T10:34:24.872Z,57.75
2023-05-16T10:36:28.050Z,57.43
2023-05-16T10:38:31.717Z,56.32
2023-05-16T10:40:35.382Z,55.99
2023-05-16T10:42:38.385Z,55.87
2023-05-16T10:44:42.774Z,55.78
2023-05-16T10:46:53.127Z,56.50
2023-05-16T10:48:58.492Z,56.79
2023-05-16T10:51:03.177Z,56.77
2023-05-16T10:53:21.271Z,56.18
2023-05-16T10:55:24.211Z,56.37
2023-05-16T10:57:27.124Z,56.42
2023-05-16T10:59:30.576Z,56.19
2023-05-16T11:01:34.705Z,56.01
2023-05-16T11:03:39.132Z,55.30
2023-05-16T11:05:42.097Z,56.11
2023-05-16T11:07:45.060Z,56.62
2023-05-16T11:10:03.848Z,57.70
2023-05-16T11:12:10.824Z,57.98
2023-05-16T11:14:22.080Z,57.41
2023-05-16T11:16:28.371Z,58.03
2023-05-16T11:18:34.154Z,58.16
2023-05-16T11:20:39.896Z,58.71
2023-05-16T11:22:43.268Z,58.09
2023-05-16T11:24:58.890Z,58.24
2023-05-16T11:27:02.351Z,58.03
2023-05-16T11:29:06.119Z,57.88
2023-05-16T11:31:10.238Z,58.37
2023-05-16T11:33:13.999Z,58.51
2023-05-16T11:35:19.065Z,58.64
2023-05-16T11:37:23.359Z,57.74
2023-05-16T11:39:26.323Z,57.94
2023-05-16T11:41:30.367Z,57.61
2023-05-16T11:43:39.363Z,58.57
2023-05-16T11:45:42.327Z,58.47
2023-05-16T11:47:47.482Z,58.08
2023-05-16T11:49:50.876Z,57.77
2023-05-16T11:51:57.503Z,57.57
2023-05-16T11:54:04.902Z,57.55
2023-05-16T11:56:09.851Z,56.71
2023-05-16T11:58:13.537Z,56.65
2023-05-16T12:00:18.119Z,55.79
2023-05-16T12:02:21.603Z,55.54
2023-05-16T12:04:25.510Z,54.72
2023-05-16T12:06:31.171Z,54.72
2023-05-16T12:08:34.315Z,55.42
2023-05-16T12:10:38.566Z,54.68
2023-05-16T12:12:43.051Z,54.51
2023-05-16T12:14:45.955Z,54.92
2023-05-16T12:16:49.427Z,54.92
2023-05-16T12:18:53.162Z,54.71
2023-05-16T12:20:56.130Z,54.99
2023-05-16T12:22:59.314Z,54.97
2023-05-16T12:25:22.145Z,54.81
2023-05-16T12:27:28.165Z,53.89
2023-05-16T12:29:32.498Z,54.66
2023-05-16T12:31:38.678Z,53.70
2023-05-16T12:33:41.578Z,53.29
2023-05-16T12:35:45.865Z,52.90
2023-05-16T12:37:50.090Z,52.54
2023-05-16T12:39:53.051Z,51.28
2023-05-16T12:41:55.874Z,51.42
2023-05-16T12:44:13.450Z,50.39
2023-05-16T12:46:16.980Z,49.50
2023-05-16T12:48:20.194Z,48.79
2023-05-16T12:50:23.260Z,49.66
2023-05-16T12:52:26.991Z,49.22
2023-05-16T12:54:29.846Z,49.54
2023-05-16T12:56:32.728Z,49.97
2023-05-16T12:58:35.756Z,48.39
2023-05-16T13:00:40.062Z,48.18
2023-05-16T13:02:43.156Z,46.27
2023-05-16T13:04:46.072Z,47.06
2023-05-16T13:06:59.276Z,47.93
2023-05-16T13:09:02.750Z,47.83
2023-05-16T13:11:06.692Z,47.60
2023-05-16T13:13:09.505Z,48.37
2023-05-16T13:15:13.086Z,46.45
2023-05-16T13:17:17.288Z,47.50
2023-05-16T13:19:20.306Z,47.20
2023-05-16T13:21:23.300Z,47.51
2023-05-16T13:23:27.012Z,47.39
2023-05-16T13:25:30.076Z,47.24
2023-05-16T13:27:34.027Z,46.57
2023-05-16T13:29:36.989Z,45.38
2023-05-16T13:31:39.888Z,45.31
2023-05-16T13:33:44.177Z,44.39
2023-05-16T13:35:47.159Z,44.31
2023-05-16T13:37:49.987Z,44.50
2023-05-16T13:39:54.595Z,44.22
2023-05-16T13:41:57.330Z,43.02
2023-05-16T13:44:00.256Z,43.76
2023-05-16T13:46:03.726Z,42.80
2023-05-16T13:48:07.528Z,44.08
2023-05-16T13:50:13.015Z,42.80
2023-05-16T13:52:16.396Z,43.77
2023-05-16T13:54:19.437Z,43.14
2023-05-16T13:56:22.314Z,42.17
2023-05-16T13:58:27.148Z,44.53
2023-05-16T14:00:43.519Z,44.00
2023-05-16T14:02:48.009Z,43.92
2023-05-16T14:04:50.965Z,42.70
2023-05-16T14:06:56.299Z,42.75
2023-05-16T14:08:59.174Z,42.91
2023-05-16T14:11:02.510Z,43.50
2023-05-16T14:13:05.362Z,43.43
2023-05-16T14:15:09.247Z,44.09
2023-05-16T14:17:12.146Z,43.67
2023-05-16T14:19:17.361Z,43.46
2023-05-16T14:21:22.000Z,43.80
2023-05-16T14:23:26.272Z,41.85
2023-05-16T14:25:29.461Z,41.04
2023-05-16T14:27:32.599Z,41.36
2023-05-16T14:29:35.470Z,40.82
2023-05-16T14:31:38.402Z,40.77
2023-05-16T14:33:43.053Z,40.77
2023-05-16T14:35:45.899Z,40.93
2023-05-16T14:37:51.066Z,41.63
2023-05-16T14:39:55.225Z,39.63
2023-05-16T14:41:58.029Z,40.56
2023-05-16T14:44:00.850Z,39.80
2023-05-16T14:46:03.788Z,39.74
2023-05-16T14:48:08.540Z,40.41
2023-05-16T14:50:12.541Z,39.88
2023-05-16T14:52:15.669Z,39.75
2023-05-16T14:54:19.124Z,40.49
2023-05-16T14:56:23.330Z,40.54
2023-05-16T14:58:26.996Z,40.10
2023-05-16T15:00:30.225Z,38.76
2023-05-16T15:02:33.388Z,37.78
2023-05-16T15:04:36.542Z,37.11
2023-05-16T15:06:39.441Z,37.17
2023-05-16T15:08:42.308Z,37.33
2023-05-16T15:10:45.259Z,37.54
2023-05-16T15:12:49.381Z,37.17
2023-05-16T15:14:52.194Z,37.48
2023-05-16T15:16:55.052Z,37.65
2023-05-16T15:18:58.565Z,36.05
2023-05-16T15:21:01.458Z,37.17
2023-05-16T15:23:04.371Z,36.88
2023-05-16T15:25:08.882Z,36.56
2023-05-16T15:27:11.894Z,35.59
2023-05-16T15:29:16.736Z,35.08
2023-05-16T15:31:19.571Z,34.99
2023-05-16T15:33:22.545Z,34.24
2023-05-16T15:35:26.321Z,34.63
2023-05-16T15:37:29.909Z,35.12
2023-05-16T15:39:32.818Z,33.91
2023-05-16T15:42:00.651Z,33.43
2023-05-16T15:43:58.914Z,34.01
2023-05-16T15:46:03.374Z,34.17
2023-05-16T15:48:06.656Z,34.03
2023-05-16T15:50:10.393Z,33.60
2023-05-16T15:52:13.523Z,34.08
2023-05-16T15:54:16.313Z,33.58
2023-05-16T15:56:19.195Z,32.94
2023-05-16T15:58:22.846Z,33.26
2023-05-16T16:00:26.003Z,33.32
2023-05-16T16:02:30.317Z,33.46
2023-05-16T16:04:33.650Z,33.24
2023-05-16T16:06:36.540Z,33.86
2023-05-16T16:08:39.391Z,33.38
2023-05-16T16:10:42.296Z,34.49
2023-05-16T16:12:45.120Z,32.69
2023-05-16T16:14:49.363Z,33.73
2023-05-16T16:16:52.690Z,33.31
2023-05-16T16:18:56.958Z,34.22
2023-05-16T16:20:59.947Z,33.09
2023-05-16T16:23:02.904Z,33.37
2023-05-16T16:25:06.744Z,33.24
2023-05-16T16:27:09.618Z,33.86
2023-05-16T16:29:12.464Z,34.13
2023-05-16T16:31:16.308Z,34.70
2023-05-16T16:33:19.560Z,34.80
2023-05-16T16:35:25.831Z,34.10
2023-05-16T16:37:28.971Z,33.95
2023-05-16T16:39:33.316Z,34.42
2023-05-16T16:41:36.326Z,34.39
2023-05-16T16:43:40.370Z,33.64
2023-05-16T16:45:43.401Z,34.15
2023-05-16T16:47:46.288Z,34.20
2023-05-16T16:49:49.222Z,35.44
2023-05-16T16:51:53.513Z,34.44
2023-05-16T16:53:58.578Z,33.85
2023-05-16T16:56:01.468Z,33.67
2023-05-16T16:58:04.898Z,33.62
2023-05-16T17:00:09.560Z,33.78
2023-05-16T17:02:12.472Z,33.51
2023-05-16T17:04:15.407Z,34.71
2023-05-16T17:06:18.366Z,34.93
2023-05-16T17:08:22.631Z,34.90
2023-05-16T17:10:25.658Z,34.80
2023-05-16T17:12:28.907Z,34.50
2023-05-16T17:14:32.187Z,33.75
2023-05-16T17:16:35.090Z,34.65
2023-05-16T17:18:38.053Z,34.69
2023-05-16T17:20:41.040Z,34.63
2023-05-16T17:22:44.692Z,34.24
2023-05-16T17:24:49.126Z,34.41
2023-05-16T17:26:51.965Z,34.20
2023-05-16T17:28:54.927Z,33.92
2023-05-16T17:30:57.950Z,33.03
2023-05-16T17:33:01.148Z,33.25
2023-05-16T17:35:04.340Z,33.19
2023-05-16T17:37:07.340Z,33.00
2023-05-16T17:39:10.936Z,32.48
2023-05-16T17:41:15.470Z,32.29
2023-05-16T17:43:18.350Z,33.01
2023-05-16T17:45:21.351Z,33.39
2023-05-16T17:47:24.412Z,32.57
2023-05-16T17:49:27.392Z,33.34
2023-05-16T17:51:30.762Z,33.26
2023-05-16T17:53:33.713Z,33.63
2023-05-16T17:55:38.352Z,33.17
2023-05-16T17:57:42.778Z,33.53
2023-05-16T17:59:45.599Z,33.50
2023-05-16T18:01:49.217Z,33.20
2023-05-16T18:03:52.113Z,33.46
2023-05-16T18:05:55.100Z,33.50
2023-05-16T18:07:57.941Z,33.36
2023-05-16T18:10:00.749Z,33.01
2023-05-16T18:12:03.768Z,33.92
2023-05-16T18:14:08.841Z,34.05
2023-05-16T18:16:11.767Z,33.80
2023-05-16T18:18:14.713Z,34.14
2023-05-16T18:20:19.896Z,34.50
2023-05-16T18:22:24.381Z,33.96
2023-05-16T18:24:27.130Z,34.51
2023-05-16T18:26:30.080Z,33.85
2023-05-16T18:28:33.451Z,35.08
2023-05-16T18:30:38.292Z,34.73
2023-05-16T18:32:41.492Z,34.72
2023-05-16T18:34:44.489Z,35.40
2023-05-16T18:36:48.143Z,34.82
2023-05-16T18:38:51.068Z,34.43
2023-05-16T18:40:54.034Z,35.36
2023-05-16T18:42:58.670Z,35.77
2023-05-16T18:45:01.688Z,35.61
2023-05-16T18:47:06.292Z,35.73
2023-05-16T18:49:08.999Z,35.22
2023-05-16T18:51:11.992Z,35.13
2023-05-16T18:53:14.872Z,35.24
2023-05-16T18:55:17.814Z,35.52
2023-05-16T18:57:20.810Z,35.90
2023-05-16T18:59:23.583Z,35.66
2023-05-16T19:01:26.478Z,36.05
2023-05-16T19:03:33.807Z,36.65
2023-05-16T19:05:37.421Z,36.75
2023-05-16T19:07:40.728Z,36.91
2023-05-16T19:09:43.576Z,36.37
2023-05-16T19:11:46.560Z,36.31
2023-05-16T19:13:49.683Z,36.83
2023-05-16T19:15:53.362Z,36.99
2023-05-16T19:17:56.415Z,37.02
2023-05-16T19:20:01.717Z,37.42
2023-05-16T19:22:04.922Z,38.57
2023-05-16T19:24:08.832Z,37.85
2023-05-16T19:26:11.634Z,37.55
2023-05-16T19:28:14.783Z,38.31
2023-05-16T19:30:17.928Z,38.27
2023-05-16T19:32:20.755Z,38.05
2023-05-16T19:34:26.420Z,38.75
2023-05-16T19:36:30.994Z,38.14
2023-05-16T19:38:33.856Z,38.95
2023-05-16T19:40:39.849Z,39.22
2023-05-16T19:42:43.483Z,39.00
2023-05-16T19:44:46.352Z,38.80
2023-05-16T19:46:49.266Z,39.42
2023-05-16T19:48:52.860Z,38.95
2023-05-16T19:50:56.016Z,39.01
2023-05-16T19:53:00.352Z,38.80
2023-05-16T19:55:03.390Z,39.58
2023-05-16T19:57:06.720Z,39.13
2023-05-16T19:59:09.614Z,39.50
2023-05-16T20:01:12.526Z,39.74
2023-05-16T20:03:15.541Z,40.01
2023-05-16T20:05:22.228Z,40.26
2023-05-16T20:07:25.532Z,39.87
2023-05-16T20:09:29.811Z,40.29
2023-05-16T20:11:32.673Z,40.00
2023-05-16T20:13:35.467Z,40.60
2023-05-16T20:15:38.319Z,40.82
2023-05-16T20:17:41.718Z,41.27
2023-05-16T20:19:44.651Z,41.20
2023-05-16T20:21:47.764Z,41.71
2023-05-16T20:23:50.794Z,40.98
2023-05-16T20:25:54.943Z,41.68
2023-05-16T20:27:57.814Z,41.46
2023-05-16T20:30:00.658Z,41.55
2023-05-16T20:32:04.225Z,42.48
2023-05-16T20:34:07.153Z,41.98
2023-05-16T20:36:10.053Z,42.17
2023-05-16T20:38:12.887Z,42.62
2023-05-16T20:40:15.815Z,42.79
2023-05-16T20:42:20.018Z,43.02
2023-05-16T20:44:24.612Z,42.60
2023-05-16T20:46:27.445Z,42.90
2023-05-16T20:48:30.393Z,42.35
2023-05-16T20:50:35.940Z,43.15
2023-05-16T20:52:38.830Z,43.49
2023-05-16T20:54:42.138Z,43.33
2023-05-16T20:56:44.991Z,43.21
2023-05-16T20:58:49.182Z,42.89
2023-05-16T21:00:52.097Z,43.78
2023-05-16T21:02:54.979Z,43.79
2023-05-16T21:05:02.041Z,43.81
2023-05-16T21:07:11.263Z,43.81
2023-05-16T21:09:14.253Z,43.77
2023-05-16T21:11:17.171Z,44.52
2023-05-16T21:13:20.067Z,44.45
2023-05-16T21:15:24.416Z,44.60
2023-05-16T21:17:27.261Z,45.08
2023-05-16T21:19:33.957Z,44.84
2023-05-16T21:21:36.973Z,45.01
2023-05-16T21:23:39.808Z,45.42
2023-05-16T21:25:43.125Z,45.50
2023-05-16T21:27:45.998Z,45.51
2023-05-16T21:29:48.942Z,45.63
2023-05-16T21:31:53.169Z,45.96
2023-05-16T21:33:56.176Z,46.23
2023-05-16T21:36:00.326Z,46.29
2023-05-16T21:39:08.755Z,45.92
2023-05-16T21:41:11.611Z,46.71
2023-05-16T21:43:14.522Z,46.37
2023-05-16T21:45:17.455Z,46.77
2023-05-16T21:47:21.747Z,46.75
2023-05-16T21:49:24.707Z,47.07
2023-05-16T21:51:27.755Z,46.66
2023-05-16T21:53:30.651Z,46.61
2023-05-16T21:55:33.475Z,46.99
2023-05-16T21:57:36.379Z,46.90
2023-05-16T21:59:39.432Z,47.30
2023-05-16T22:01:42.293Z,47.13
2023-05-16T22:03:47.338Z,47.42
2023-05-16T22:05:50.229Z,47.48
2023-05-16T22:07:53.681Z,47.61
2023-05-16T22:09:56.635Z,47.58
2023-05-16T22:11:59.609Z,47.89
2023-05-16T22:14:02.425Z,47.81
2023-05-16T22:16:05.911Z,47.97
2023-05-16T22:18:08.926Z,47.93
2023-05-16T22:20:13.355Z,48.46
2023-05-16T22:22:16.247Z,47.96
2023-05-16T22:24:19.081Z,48.48
2023-05-16T22:26:22.284Z,48.31
2023-05-16T22:28:25.255Z,48.84
2023-05-16T22:30:28.080Z,49.00
2023-05-16T22:32:31.162Z,49.20
2023-05-16T22:34:34.191Z,49.20
2023-05-16T22:36:39.343Z,49.40
2023-05-16T22:38:42.183Z,49.87
2023-05-16T22:40:46.232Z,50.15
2023-05-16T22:42:49.081Z,49.80
2023-05-16T22:44:51.940Z,50.13
2023-05-16T22:46:54.810Z,50.07
2023-05-16T22:48:57.697Z,49.89
2023-05-16T22:51:02.004Z,50.36
2023-05-16T22:53:06.273Z,51.25
2023-05-16T22:55:09.874Z,51.08
2023-05-16T22:57:12.690Z,50.67
2023-05-16T22:59:15.919Z,51.20
2023-05-16T23:01:18.780Z,51.40
2023-05-16T23:03:21.827Z,50.98
2023-05-16T23:05:24.860Z,50.83
2023-05-16T23:07:28.802Z,51.64
2023-05-16T23:09:32.929Z,51.42
2023-05-16T23:11:35.880Z,51.44
2023-05-16T23:13:38.762Z,52.20
2023-05-16T23:15:41.724Z,52.42
2023-05-16T23:17:44.827Z,52.44
2023-05-16T23:19:47.760Z,51.94
2023-05-16T23:21:50.701Z,52.15
2023-05-16T23:23:53.981Z,52.22
2023-05-16T23:25:58.163Z,52.42
2023-05-16T23:28:01.089Z,52.65
2023-05-16T23:30:04.245Z,52.18
2023-05-16T23:32:07.620Z,52.81
2023-05-16T23:34:10.494Z,52.35
2023-05-16T23:36:13.390Z,53.04
2023-05-16T23:38:16.283Z,52.56
2023-05-16T23:40:19.180Z,52.62
2023-05-16T23:42:23.388Z,53.47
2023-05-16T23:44:26.198Z,53.27
2023-05-16T23:46:29.017Z,52.91
2023-05-16T23:48:31.928Z,53.14
2023-05-16T23:50:34.868Z,53.96
2023-05-16T23:52:38.351Z,53.36
2023-05-16T23:54:41.229Z,53.82
2023-05-16T23:56:44.048Z,53.37
2023-05-16T23:58:48.938Z,53.48
